Terminal Aerodrome Forecast
Issued by NWS Boston, MA

Home | Current Version | Previous Version | Text Only | Print | Product List | Glossary On
Versions: 1 2 3 4 5 6 7 8 9 10 11 12 13 14 15 16 17 18 19 20 21 22 23 24
000
FTUS41 KBOX 251741
TAFBDL
TAF
KBDL 251741Z 2518/2624 02013KT P6SM -SHRA SCT015 OVC025
     FM252000 03008KT P6SM -SHRA OVC015
     FM260000 02009KT 4SM -SHRA BR OVC010
     FM260300 02009KT 3SM -SHRA BR OVC008
     FM261400 04005KT 5SM BR VCSH OVC010
     FM261900 04005KT P6SM VCSH OVC010=

USA.gov is the U.S. government's official web portal to all federal, state and local government web resources and services.